Time;durP1;ratioP1;P1;durP2;ratioP2;P2;SDS_P1;SDS_P2;PMS_P1;PMS_P2;Temp;Humidity;BMP_temperature;BMP_pressure;BME280_temperature;BME280_humidity;BME280_pressure;Samples;Min_cycle;Max_cycle;Signal;HPM_P1;HPM_P2
2021/03/12 00:00:17;;;;;;;1.10;0.50;;;7.80;94.50;;;7.62;89.29;97422.00;5064174;28;20717;-69
2021/03/12 00:02:45;;;;;;;1.00;0.60;;;7.80;94.50;;;7.57;88.83;97423.22;5058871;28;20625;-69
2021/03/12 00:05:14;;;;;;;1.33;0.77;;;7.80;94.40;;;7.62;88.60;97431.53;5062860;28;20647;-69
2021/03/12 00:07:41;;;;;;;1.30;0.50;;;7.80;94.60;;;7.55;88.82;97425.94;5067139;28;20703;-69
2021/03/12 00:10:12;;;;;;;1.90;0.70;;;7.80;94.70;;;7.52;88.90;97425.31;5067006;28;20627;-69
2021/03/12 00:12:40;;;;;;;0.90;0.60;;;7.70;94.80;;;7.50;89.44;97435.78;5058628;28;20640;-69
2021/03/12 00:15:12;;;;;;;2.03;0.87;;;7.70;95.00;;;7.51;90.19;97429.66;5060424;28;21314;-69
2021/03/12 00:17:41;;;;;;;1.10;0.60;;;7.70;95.10;;;7.48;90.12;97434.22;5059783;28;21022;-69
2021/03/12 00:20:14;;;;;;;3.93;0.70;;;7.70;95.00;;;7.54;89.67;97424.25;5059701;28;20640;-69
2021/03/12 00:22:41;;;;;;;1.43;0.70;;;7.70;94.80;;;7.55;89.26;97427.72;5058338;28;21462;-69
2021/03/12 00:25:14;;;;;;;2.80;1.60;;;7.70;94.50;;;7.64;88.53;97422.72;5058937;28;21752;-69
2021/03/12 00:27:43;;;;;;;4.60;4.20;;;7.80;94.50;;;7.74;89.09;97431.56;5064056;28;21209;-69
2021/03/12 00:30:12;;;;;;;2.30;1.57;;;7.90;94.30;;;7.73;88.11;97424.69;5062144;28;21193;-69
2021/03/12 00:32:41;;;;;;;2.63;1.30;;;7.90;94.00;;;7.80;87.45;97427.69;5056408;28;20690;-69
2021/03/12 00:35:10;;;;;;;1.13;0.63;;;8.00;93.60;;;7.85;88.02;97433.41;5061568;28;21326;-69
2021/03/12 00:37:38;;;;;;;2.10;0.73;;;8.10;93.70;;;7.90;86.24;97437.34;5060672;28;21171;-69
2021/03/12 00:40:12;;;;;;;2.90;0.83;;;8.10;93.30;;;8.03;86.12;97443.38;5061752;28;20681;-69
2021/03/12 00:42:40;;;;;;;1.73;1.20;;;8.20;93.00;;;8.10;85.38;97448.06;5057740;28;20632;-69
2021/03/12 00:45:11;;;;;;;1.23;0.77;;;8.30;92.60;;;8.18;83.53;97443.19;5057698;28;20628;-69
2021/03/12 00:47:41;;;;;;;4.33;0.70;;;8.40;91.20;;;8.32;80.99;97456.03;5069825;28;20737;-69
2021/03/12 00:50:12;;;;;;;4.63;0.90;;;8.50;90.40;;;8.41;81.29;97444.19;5056996;28;20683;-69
2021/03/12 00:52:41;;;;;;;7.87;1.00;;;8.60;89.20;;;8.49;80.27;97442.69;5055208;28;20970;-69
2021/03/12 00:55:10;;;;;;;2.53;1.10;;;8.70;88.20;;;8.49;79.18;97460.88;5055268;28;20692;-69
2021/03/12 00:57:43;;;;;;;2.13;0.90;;;8.70;86.90;;;8.64;78.85;97462.41;5053868;28;20667;-69
2021/03/12 01:00:13;;;;;;;2.43;0.80;;;8.80;85.00;;;8.63;78.17;97461.56;5048728;28;20626;-69
2021/03/12 01:02:42;;;;;;;1.23;1.00;;;8.90;85.40;;;8.61;78.84;97431.44;5049672;28;20670;-69
2021/03/12 01:05:12;;;;;;;2.73;0.93;;;8.90;84.30;;;8.63;78.82;97465.91;5076481;28;21198;-69
2021/03/12 01:07:40;;;;;;;1.47;0.97;;;8.90;84.00;;;8.69;76.85;97468.09;5051788;28;20635;-69
2021/03/12 01:10:09;;;;;;;2.53;1.00;;;8.90;83.80;;;8.71;77.41;97467.06;5053235;28;21186;-69
2021/03/12 01:12:37;;;;;;;3.53;1.10;;;8.90;82.40;;;8.75;77.18;97522.25;5065051;28;20647;-69
2021/03/12 01:15:10;;;;;;;2.67;0.80;;;9.00;82.30;;;8.72;79.02;97558.84;5049479;28;20747;-69
2021/03/12 01:17:38;;;;;;;1.13;0.60;;;9.00;83.60;;;8.52;80.17;97555.06;5049778;28;20662;-69
2021/03/12 01:20:12;;;;;;;1.37;0.70;;;8.80;86.70;;;8.33;82.75;97542.56;5048058;28;20628;-69
2021/03/12 01:22:40;;;;;;;1.23;0.70;;;8.70;88.60;;;7.98;83.46;97542.34;5050069;28;20639;-69
2021/03/12 01:25:11;;;;;;;1.27;0.60;;;8.50;89.60;;;7.85;84.04;97556.25;5048045;28;20632;-69
2021/03/12 01:27:40;;;;;;;1.60;0.70;;;8.30;90.30;;;7.73;84.69;97543.25;5052457;28;20625;-69
2021/03/12 01:30:16;;;;;;;0.80;0.40;;;8.10;90.90;;;7.62;85.20;97541.34;5051284;28;20627;-69
2021/03/12 01:32:45;;;;;;;1.30;0.70;;;8.00;91.00;;;7.49;85.66;97539.66;5048246;28;21244;-69
2021/03/12 01:35:17;;;;;;;1.50;0.60;;;7.90;91.30;;;7.46;85.31;97531.22;5056068;28;20655;-69
2021/03/12 01:37:44;;;;;;;2.13;0.57;;;7.80;91.30;;;7.39;85.52;97537.75;5047841;28;21801;-69
2021/03/12 01:40:17;;;;;;;1.53;0.67;;;7.70;91.50;;;7.33;86.20;97549.34;5048389;28;20625;-69
2021/03/12 01:42:59;;;;;;;0.77;0.40;;;7.70;91.70;;;7.30;85.95;97548.72;5032788;28;20716;-69
2021/03/12 01:45:32;;;;;;;2.83;0.60;;;7.60;92.10;;;7.29;86.01;97555.69;5049492;28;20733;-69
2021/03/12 01:48:01;;;;;;;1.43;0.50;;;7.70;92.20;;;7.27;86.51;97560.13;5049945;28;20646;-69
2021/03/12 01:50:31;;;;;;;1.20;0.60;;;7.60;92.10;;;7.36;86.27;97569.91;5051937;28;20999;-69
2021/03/12 01:53:00;;;;;;;1.90;0.50;;;7.70;92.10;;;7.35;85.09;97568.25;5047265;28;20640;-69
2021/03/12 01:55:32;;;;;;;0.97;0.60;;;7.70;92.00;;;7.33;86.48;97567.50;5049012;28;20749;-69
2021/03/12 01:58:04;;;;;;;3.63;0.70;;;7.70;92.20;;;7.33;86.04;97574.47;5052708;28;20650;-69
2021/03/12 02:00:39;;;;;;;2.87;0.73;;;7.70;92.10;;;7.30;85.54;97565.09;5054778;28;20627;-69
2021/03/12 02:03:21;;;;;;;1.77;0.80;;;7.70;92.10;;;7.25;85.28;97572.34;5048846;28;20641;-69
2021/03/12 02:05:58;;;;;;;1.63;0.70;;;7.60;92.00;;;7.16;86.09;97570.34;5051837;28;20654;-69
2021/03/12 02:08:26;;;;;;;0.60;0.47;;;7.60;92.20;;;7.13;86.56;97586.09;5047515;28;20783;-69
2021/03/12 02:11:09;;;;;;;1.23;0.77;;;7.50;92.30;;;7.15;86.52;97586.00;5051344;28;21008;-69
2021/03/12 02:13:47;;;;;;;1.47;1.00;;;7.50;92.30;;;7.13;85.91;97593.88;5063244;28;20717;-69
2021/03/12 02:16:23;;;;;;;0.83;0.70;;;7.50;92.30;;;7.10;86.33;97586.28;5048098;28;20748;-69
2021/03/12 02:19:00;;;;;;;1.97;1.07;;;7.50;92.30;;;7.13;86.56;97582.66;5052968;28;20622;-69
2021/03/12 02:21:38;;;;;;;3.90;1.23;;;7.50;92.30;;;7.13;85.55;97583.50;5053119;28;20721;-69
2021/03/12 02:24:12;;;;;;;1.40;0.97;;;7.50;92.10;;;7.18;85.41;97597.00;5050357;28;20637;-69
2021/03/12 02:27:03;;;;;;;1.97;1.10;;;7.50;91.80;;;7.19;84.53;97596.06;5056168;28;20629;-69
2021/03/12 02:29:36;;;;;;;1.40;1.00;;;7.60;91.70;;;7.11;85.25;97594.88;5053469;28;20641;-69
2021/03/12 02:32:05;;;;;;;1.80;1.00;;;7.50;91.50;;;7.09;85.47;97596.75;5071011;28;20998;-69
2021/03/12 02:34:37;;;;;;;2.77;1.40;;;7.50;91.50;;;7.16;84.52;97590.25;5068316;28;20658;-69
2021/03/12 02:37:17;;;;;;;1.93;1.10;;;7.50;91.50;;;7.11;85.04;97594.88;5052445;28;20996;-69
2021/03/12 02:39:52;;;;;;;2.27;0.90;;;7.50;91.20;;;7.10;84.35;97594.06;5053950;28;21418;-69
2021/03/12 02:42:22;;;;;;;2.40;1.00;;;7.50;91.10;;;7.14;84.76;97592.94;5052470;28;20759;-69
2021/03/12 02:44:55;;;;;;;2.20;1.37;;;7.50;91.00;;;7.18;83.50;97585.81;5053205;28;20643;-69
2021/03/12 02:47:28;;;;;;;3.77;1.57;;;7.50;90.90;;;7.19;83.26;97592.66;5053724;28;21373;-69
2021/03/12 02:50:07;;;;;;;4.97;1.30;;;7.60;90.70;;;7.15;82.81;97586.00;5055301;28;20631;-69
2021/03/12 02:52:37;;;;;;;3.10;1.13;;;7.50;90.20;;;7.09;82.65;97588.97;5050874;28;20639;-69
2021/03/12 02:55:07;;;;;;;3.03;1.60;;;7.50;90.10;;;7.09;82.39;97592.38;5053471;28;20692;-69
2021/03/12 02:57:52;;;;;;;2.47;0.83;;;7.50;90.00;;;7.18;82.52;97591.00;5054334;28;21463;-69
2021/03/12 03:00:21;;;;;;;2.77;1.10;;;7.50;90.00;;;7.18;82.16;97589.22;5052950;28;20631;-69
2021/03/12 03:03:09;;;;;;;3.50;0.90;;;7.50;89.60;;;7.27;82.06;97599.00;5051885;28;20641;-69
2021/03/12 03:05:43;;;;;;;2.50;1.17;;;7.60;89.70;;;7.37;83.00;97601.88;5067443;28;20673;-69
2021/03/12 03:08:13;;;;;;;3.87;1.30;;;7.70;89.80;;;7.53;81.18;97587.78;5054084;28;20638;-69
2021/03/12 03:10:41;;;;;;;4.60;1.27;;;7.80;89.30;;;7.52;81.92;97591.34;5054639;28;20665;-69
2021/03/12 03:13:11;;;;;;;2.53;0.80;;;7.80;88.40;;;7.50;81.46;97591.44;5057900;28;20752;-69
2021/03/12 03:15:41;;;;;;;3.00;1.20;;;7.80;88.10;;;7.55;80.41;97591.97;5050208;28;20629;-69
2021/03/12 03:18:12;;;;;;;2.47;1.00;;;7.80;87.90;;;7.57;80.66;97595.28;5050654;28;20635;-69
2021/03/12 03:20:46;;;;;;;1.57;0.70;;;7.90;88.00;;;7.52;81.56;97592.16;5053457;28;20723;-69
2021/03/12 03:23:17;;;;;;;2.00;0.80;;;7.80;88.00;;;7.54;80.52;97594.66;5053192;28;20631;-69
2021/03/12 03:25:46;;;;;;;6.10;1.20;;;7.80;87.90;;;7.48;81.08;97604.59;5050436;28;20629;-69
2021/03/12 03:28:23;;;;;;;3.27;0.93;;;7.70;87.90;;;7.34;82.06;97600.28;5067929;28;20707;-69
2021/03/12 03:30:52;;;;;;;1.63;0.93;;;7.60;88.10;;;7.37;81.30;97602.69;5058852;28;20656;-68
2021/03/12 03:33:19;;;;;;;4.53;0.97;;;7.70;88.40;;;7.42;81.72;97605.00;5053394;28;20655;-68
2021/03/12 03:35:47;;;;;;;3.17;1.17;;;7.70;88.40;;;7.54;80.85;97615.41;5050853;28;20680;-68
2021/03/12 03:38:15;;;;;;;1.17;0.60;;;7.80;87.80;;;7.59;79.54;97608.16;5067242;28;22132;-68
2021/03/12 03:40:43;;;;;;;1.93;1.20;;;7.80;87.00;;;7.58;80.06;97614.31;5053183;28;21475;-68
2021/03/12 03:43:13;;;;;;;2.90;1.80;;;7.80;86.80;;;7.56;80.50;97608.34;5066675;28;20643;-68
2021/03/12 03:45:43;;;;;;;3.00;2.10;;;7.80;86.40;;;7.55;80.59;97607.53;5050774;28;20734;-68
2021/03/12 03:48:28;;;;;;;2.67;0.97;;;7.80;86.90;;;7.58;80.08;97615.13;5049921;28;21255;-68
2021/03/12 03:50:57;;;;;;;1.63;0.80;;;7.80;86.90;;;7.52;79.28;97617.28;5053509;28;21116;-68
2021/03/12 03:53:29;;;;;;;3.70;0.70;;;7.80;86.20;;;7.57;79.75;97623.00;5048942;28;20646;-68
2021/03/12 03:56:00;;;;;;;2.40;0.90;;;7.80;85.50;;;7.75;77.10;97619.22;5050483;28;20639;-68
2021/03/12 03:58:32;;;;;;;3.33;1.00;;;8.00;84.10;;;7.80;76.11;97632.72;5068107;28;20632;-68
2021/03/12 04:01:02;;;;;;;7.40;1.53;;;8.00;82.70;;;7.77;76.68;97643.31;5050211;28;21205;-68
2021/03/12 04:03:30;;;;;;;6.23;1.30;;;8.10;82.80;;;7.82;77.85;97657.66;5051138;28;20726;-68
2021/03/12 04:06:04;;;;;;;5.70;1.10;;;8.10;83.30;;;7.85;76.43;97662.66;5049469;28;21000;-68
2021/03/12 04:08:35;;;;;;;4.20;1.40;;;8.10;82.30;;;7.86;78.22;97668.69;5035667;28;20638;-68
2021/03/12 04:11:04;;;;;;;3.60;1.20;;;8.20;82.50;;;7.85;79.35;97678.25;5051963;28;20640;-68
2021/03/12 04:13:35;;;;;;;3.67;1.20;;;8.10;84.00;;;7.80;81.01;97688.06;5049798;28;20736;-68
2021/03/12 04:16:06;;;;;;;6.13;1.80;;;8.10;86.60;;;7.67;81.50;97694.97;5050821;28;20634;-68
2021/03/12 04:18:34;;;;;;;1.53;0.80;;;8.00;87.90;;;7.53;83.76;97712.31;5050845;28;20693;-68
2021/03/12 04:21:03;;;;;;;2.53;0.90;;;7.90;89.60;;;7.41;85.50;97713.09;5050556;28;21362;-68
2021/03/12 04:23:31;;;;;;;3.93;1.37;;;7.80;90.60;;;7.39;85.09;97704.56;5051873;28;21193;-68
2021/03/12 04:26:01;;;;;;;2.47;0.97;;;7.70;90.90;;;7.35;83.86;97697.94;5067822;28;21269;-68
2021/03/12 04:28:31;;;;;;;1.23;0.83;;;7.70;90.70;;;7.28;84.10;97707.00;5055931;28;21289;-68
2021/03/12 04:31:00;;;;;;;6.00;1.17;;;7.70;90.80;;;7.30;84.73;97696.53;5049243;28;20684;-68
2021/03/12 04:33:30;;;;;;;5.07;1.27;;;7.70;90.80;;;7.28;83.67;97716.56;5048637;28;21196;-68
2021/03/12 04:36:00;;;;;;;6.70;0.83;;;7.60;90.50;;;7.32;83.33;97710.22;5049605;28;20681;-68
2021/03/12 04:38:29;;;;;;;3.03;1.10;;;7.70;90.50;;;7.37;83.06;97719.41;5051156;28;20639;-68
2021/03/12 04:40:58;;;;;;;2.47;1.07;;;7.70;90.20;;;7.38;82.78;97723.69;5049912;28;21114;-68
2021/03/12 04:43:29;;;;;;;1.17;0.77;;;7.70;89.90;;;7.44;81.57;97718.09;5050212;28;20633;-68
2021/03/12 04:46:01;;;;;;;4.93;1.93;;;7.80;89.60;;;7.49;81.06;97722.06;5047182;28;20631;-68
2021/03/12 04:48:37;;;;;;;4.03;1.47;;;7.80;88.80;;;7.47;79.33;97723.09;5048971;28;20658;-68
2021/03/12 04:51:07;;;;;;;4.60;1.20;;;7.80;85.80;;;7.46;77.42;97726.63;5052174;28;20635;-68
2021/03/12 04:53:35;;;;;;;5.27;1.00;;;7.80;83.40;;;7.48;76.91;97704.00;5051621;28;20702;-68
2021/03/12 04:56:05;;;;;;;4.40;0.83;;;7.80;81.70;;;7.51;74.75;97711.59;5066924;28;20651;-68
2021/03/12 04:58:37;;;;;;;2.70;1.33;;;7.80;80.30;;;7.55;74.50;97724.28;5049956;28;20646;-68
2021/03/12 05:01:07;;;;;;;6.80;1.00;;;7.90;79.00;;;7.58;74.55;97720.69;5052928;28;20639;-68
2021/03/12 05:03:39;;;;;;;4.43;1.40;;;7.90;77.90;;;7.59;72.53;97725.78;5050319;28;20646;-68
2021/03/12 05:06:09;;;;;;;6.17;0.90;;;7.90;76.70;;;7.67;72.47;97728.72;5047880;28;20657;-68
2021/03/12 05:08:40;;;;;;;4.40;1.20;;;8.00;76.30;;;7.57;72.60;97739.75;5048553;28;21197;-68
2021/03/12 05:11:17;;;;;;;7.73;1.20;;;7.90;76.40;;;7.60;72.44;97744.75;5054331;28;20691;-68
2021/03/12 05:13:58;;;;;;;4.63;1.30;;;7.90;75.60;;;7.56;72.73;97754.50;5050588;28;20634;-68
2021/03/12 05:16:32;;;;;;;2.07;1.30;;;7.90;75.50;;;7.50;72.58;97754.88;5051247;28;20652;-68
2021/03/12 05:19:01;;;;;;;2.90;1.10;;;7.90;75.30;;;7.49;73.38;97757.56;5050615;28;20639;-68
2021/03/12 05:21:30;;;;;;;3.60;1.10;;;7.90;76.20;;;7.51;73.59;97755.69;5050148;28;20653;-68
2021/03/12 05:23:59;;;;;;;2.13;0.90;;;7.80;76.40;;;7.48;73.29;97756.72;5049636;28;21162;-68
2021/03/12 05:26:28;;;;;;;4.00;1.03;;;7.80;76.90;;;7.46;74.13;97752.56;5049004;28;20622;-69
2021/03/12 05:28:57;;;;;;;4.07;1.33;;;7.80;77.80;;;7.47;73.17;97750.78;5050239;28;20643;-68
2021/03/12 05:31:26;;;;;;;4.47;1.03;;;7.80;77.00;;;7.58;73.08;97750.03;5054922;28;20761;-68
2021/03/12 05:33:55;;;;;;;6.80;1.30;;;7.90;76.30;;;7.56;72.54;97753.66;5051225;28;20743;-68
2021/03/12 05:36:26;;;;;;;4.50;1.07;;;7.90;76.10;;;7.59;72.41;97759.50;5052226;28;21008;-68
2021/03/12 05:38:54;;;;;;;6.70;1.40;;;7.90;76.10;;;7.54;73.26;97761.53;5049345;28;20638;-68
2021/03/12 05:41:23;;;;;;;2.33;1.13;;;7.90;77.30;;;7.65;73.74;97755.69;5045921;28;20638;-68
2021/03/12 05:43:51;;;;;;;3.77;1.10;;;8.00;76.40;;;7.60;73.45;97757.72;5066253;28;20634;-68
2021/03/12 05:46:19;;;;;;;3.17;1.00;;;8.00;76.30;;;7.64;73.01;97756.63;5049752;28;21227;-68
2021/03/12 05:48:47;;;;;;;3.60;1.10;;;8.00;76.50;;;7.69;72.45;97750.19;5049985;28;20654;-68
2021/03/12 05:51:20;;;;;;;4.43;1.07;;;8.00;76.30;;;7.68;73.37;97760.69;5050806;28;20690;-68
2021/03/12 05:53:51;;;;;;;2.53;1.00;;;8.00;76.10;;;7.70;74.23;97761.44;5054708;28;20657;-68
2021/03/12 05:56:19;;;;;;;4.70;1.43;;;8.00;76.30;;;7.68;74.27;97758.09;5050650;28;20733;-68
2021/03/12 05:59:04;;;;;;;3.80;1.20;;;8.10;76.50;;;7.63;72.98;97765.31;5055264;28;20647;-68
2021/03/12 06:01:39;;;;;;;1.90;0.93;;;8.00;76.60;;;7.63;74.21;97766.16;5052556;28;20641;-68
2021/03/12 06:04:12;;;;;;;3.27;1.03;;;8.00;77.10;;;7.69;73.62;97767.53;5052593;28;20650;-68
2021/03/12 06:06:42;;;;;;;3.87;1.00;;;8.00;76.40;;;7.76;72.55;97761.06;5051034;28;20653;-68
2021/03/12 06:09:10;;;;;;;5.00;1.17;;;8.10;76.10;;;7.77;73.83;97767.88;5054278;28;20647;-68
2021/03/12 06:11:39;;;;;;;4.33;0.90;;;8.10;76.10;;;7.78;73.33;97769.56;5053452;28;21197;-68
2021/03/12 06:14:07;;;;;;;4.87;0.80;;;8.10;75.90;;;7.84;72.11;97770.00;5055228;28;20646;-68
2021/03/12 06:16:55;;;;;;;7.13;1.30;;;8.20;75.90;;;7.85;73.40;97778.63;5054733;28;20651;-68
2021/03/12 06:19:29;;;;;;;7.63;1.43;;;8.20;76.00;;;7.84;72.24;97784.75;5053258;28;20635;-68
2021/03/12 06:22:08;;;;;;;6.10;0.93;;;8.20;75.90;;;7.91;72.45;97792.06;5056248;28;20646;-69
2021/03/12 06:24:44;;;;;;;2.70;1.30;;;8.30;76.20;;;7.96;73.03;97794.38;5051702;28;20717;-69
2021/03/12 06:27:35;;;;;;;4.67;1.50;;;8.30;76.30;;;8.01;72.58;97809.56;5051106;28;20635;-69
2021/03/12 06:30:23;;;;;;;3.97;1.40;;;8.40;76.50;;;8.06;72.30;97798.91;5051816;28;20721;-69
2021/03/12 06:33:30;;;;;;;11.73;1.90;;;8.40;76.20;;;8.15;72.57;97803.56;5051673;28;21271;-69
2021/03/12 06:36:31;;;;;;;2.77;1.03;;;8.50;76.10;;;8.22;72.84;97805.63;5052678;28;20761;-69
2021/03/12 06:39:06;;;;;;;3.70;1.30;;;8.60;76.10;;;8.30;74.22;97810.34;5054970;28;20681;-68
2021/03/12 06:42:08;;;;;;;2.37;0.80;;;8.60;76.40;;;8.34;72.91;97814.41;5052817;28;20647;-68
2021/03/12 06:44:39;;;;;;;3.20;1.00;;;8.60;76.20;;;8.39;73.61;97821.00;5049516;28;21273;-68
2021/03/12 06:47:21;;;;;;;4.37;1.13;;;8.70;76.10;;;8.45;73.28;97836.19;5055422;28;21074;-68
2021/03/12 06:49:58;;;;;;;5.90;1.40;;;8.80;76.50;;;8.45;74.16;97844.00;5053037;28;21183;-68
2021/03/12 06:53:00;;;;;;;7.00;3.40;;;8.80;76.50;;;8.34;74.30;97830.81;5051172;28;20630;-68
2021/03/12 06:55:46;;;;;;;2.13;0.80;;;8.70;75.90;;;8.38;73.90;97829.72;5052942;28;20626;-68
2021/03/12 06:58:29;;;;;;;2.70;1.60;;;8.70;76.10;;;8.36;73.46;97839.38;5049946;28;20655;-69
2021/03/12 07:01:20;;;;;;;3.47;1.20;;;8.70;76.60;;;8.37;74.18;97841.03;5048559;28;20769;-68
2021/03/12 07:04:09;;;;;;;2.23;0.73;;;8.70;76.80;;;8.31;72.97;97835.41;5063106;28;20997;-69
2021/03/12 07:06:50;;;;;;;8.53;1.30;;;8.70;76.70;;;8.26;75.32;97845.25;5055994;28;20639;-68
2021/03/12 07:09:26;;;;;;;2.30;0.90;;;8.60;77.80;;;8.30;74.29;97852.75;5056179;28;20639;-68
2021/03/12 07:12:03;;;;;;;3.13;1.07;;;8.60;78.40;;;8.27;76.07;97847.75;5061226;28;21006;-68
2021/03/12 07:15:09;;;;;;;6.17;0.90;;;8.60;78.70;;;8.29;75.11;97856.28;5060889;28;20685;-67
2021/03/12 07:17:46;;;;;;;2.67;0.87;;;8.70;79.20;;;8.32;75.81;97861.28;5062007;28;20713;-67
2021/03/12 07:20:23;;;;;;;6.17;1.20;;;8.70;79.20;;;8.33;76.30;97868.16;5061437;28;20644;-70
2021/03/12 07:22:55;;;;;;;3.50;1.10;;;8.70;79.80;;;8.48;76.75;97873.19;5059696;28;20644;-70
2021/03/12 07:25:26;;;;;;;5.83;1.30;;;8.80;79.90;;;8.63;77.18;97863.56;5058770;28;20635;-69
2021/03/12 07:28:03;;;;;;;2.83;1.13;;;8.90;80.60;;;8.88;75.51;97867.09;5063199;28;20627;-69
2021/03/12 07:30:43;;;;;;;5.23;1.30;;;9.00;80.30;;;9.08;75.23;97872.69;5063091;28;20638;-69
2021/03/12 07:33:21;;;;;;;2.13;1.10;;;9.20;80.20;;;9.19;74.64;97872.78;5060872;28;20673;-69
2021/03/12 07:35:51;;;;;;;4.20;1.17;;;9.40;79.10;;;9.23;74.63;97870.81;5075138;28;20664;-70
2021/03/12 07:38:27;;;;;;;3.67;1.13;;;9.40;78.50;;;9.17;74.38;97885.06;5058330;28;20648;-70
2021/03/12 07:41:07;;;;;;;2.50;1.00;;;9.40;78.20;;;9.05;75.58;97891.09;5062006;28;20657;-70
2021/03/12 07:43:46;;;;;;;2.87;1.10;;;9.40;78.40;;;8.95;75.46;97899.59;5056049;28;20623;-70
2021/03/12 07:46:29;;;;;;;4.40;1.20;;;9.30;78.70;;;8.79;76.45;97908.47;5059924;28;20630;-70
2021/03/12 07:49:35;;;;;;;2.70;1.20;;;9.20;79.30;;;8.67;75.89;97904.88;5051489;28;20730;-70
2021/03/12 07:52:50;;;;;;;6.07;3.63;;;9.10;79.40;;;8.53;76.49;97902.31;5057266;28;20965;-70
2021/03/12 07:55:53;;;;;;;2.80;1.00;;;8.90;79.60;;;8.50;76.31;97914.69;5063758;28;21178;-70
2021/03/12 07:58:59;;;;;;;2.33;1.30;;;8.80;80.40;;;8.50;77.84;97899.09;5058175;28;20683;-70
2021/03/12 08:01:55;;;;;;;3.00;1.20;;;8.80;80.80;;;8.60;77.30;97907.97;5060554;28;20623;-70
2021/03/12 08:04:44;;;;;;;3.80;1.10;;;8.90;81.50;;;8.64;77.02;97899.03;5055430;28;20631;-70
2021/03/12 08:07:34;;;;;;;5.70;1.47;;;8.90;81.70;;;8.68;78.96;97903.13;5058861;28;20658;-70
2021/03/12 08:10:18;;;;;;;2.47;1.10;;;9.00;82.80;;;8.77;78.50;97894.75;5069324;28;20634;-70
2021/03/12 08:13:28;;;;;;;3.40;0.90;;;9.00;82.50;;;8.85;77.74;97897.69;5055689;28;20646;-70
2021/03/12 08:16:14;;;;;;;3.07;1.20;;;9.10;82.50;;;8.91;76.73;97898.09;5057769;28;20781;-70
2021/03/12 08:18:48;;;;;;;2.00;1.27;;;9.20;82.50;;;8.93;78.40;97902.28;5053683;28;20996;-70
2021/03/12 08:21:35;;;;;;;3.30;1.10;;;9.20;83.00;;;8.91;78.16;97895.50;5056687;28;20635;-70
2021/03/12 08:24:49;;;;;;;6.57;1.33;;;9.20;82.00;;;8.91;78.44;97905.91;5059955;28;20627;-70
2021/03/12 08:27:46;;;;;;;3.27;1.10;;;9.20;82.80;;;8.91;78.50;97908.50;5059656;28;20643;-70
2021/03/12 08:30:47;;;;;;;3.13;1.93;;;9.20;82.80;;;8.89;78.60;97901.75;5062914;28;20719;-70
2021/03/12 08:33:39;;;;;;;4.03;1.00;;;9.20;82.60;;;8.85;78.17;97923.69;5064026;28;20982;-70
2021/03/12 08:36:40;;;;;;;5.00;1.40;;;9.20;82.30;;;8.81;76.30;97911.78;5069832;28;20646;-70
2021/03/12 08:39:29;;;;;;;4.40;1.40;;;9.20;81.40;;;8.76;78.68;97917.28;5065390;28;20634;-70
2021/03/12 08:42:57;;;;;;;2.60;1.27;;;9.10;82.80;;;9.21;78.47;97912.53;5063317;28;20639;-70
2021/03/12 08:45:53;;;;;;;5.50;1.83;;;9.40;84.50;;;9.79;78.71;97911.16;5065997;28;21091;-70
2021/03/12 08:48:43;;;;;;;5.97;1.83;;;9.70;86.60;;;10.32;76.59;97917.78;5059115;28;20639;-69
2021/03/12 08:51:19;;;;;;;3.90;1.47;;;10.20;82.90;;;10.73;74.85;97909.63;5058368;28;21255;-70
2021/03/12 08:53:57;;;;;;;5.67;1.80;;;10.70;81.00;;;10.73;73.84;97907.84;5043999;28;20629;-70
2021/03/12 08:56:45;;;;;;;6.23;3.23;;;10.70;79.00;;;10.85;74.96;97906.97;5056390;28;21170;-69
2021/03/12 08:59:27;;;;;;;2.80;1.60;;;10.90;79.70;;;10.83;73.96;97906.25;5060606;28;21279;-69
2021/03/12 09:02:06;;;;;;;4.67;1.93;;;10.80;80.10;;;10.69;72.57;97901.22;5063713;28;20630;-69
2021/03/12 09:04:50;;;;;;;4.60;1.70;;;10.80;76.70;;;10.45;73.00;97892.53;5063015;28;21042;-69
2021/03/12 09:07:55;;;;;;;2.67;1.50;;;10.60;75.30;;;10.72;73.30;97895.78;5052618;28;20723;-69
2021/03/12 09:10:44;;;;;;;3.80;1.50;;;10.80;76.30;;;11.07;73.26;97900.09;5062655;28;20623;-69
2021/03/12 09:13:32;;;;;;;5.23;1.87;;;11.10;77.60;;;11.16;71.03;97896.81;5062709;28;20651;-69
2021/03/12 09:16:05;;;;;;;3.40;1.20;;;11.20;75.00;;;11.17;71.76;97895.00;5056245;28;20636;-69
2021/03/12 09:18:41;;;;;;;4.00;1.20;;;11.30;74.70;;;11.15;70.94;97899.53;5056964;28;20675;-67
2021/03/12 09:21:17;;;;;;;1.77;1.03;;;11.30;73.50;;;11.06;70.97;97897.59;5055666;28;20723;-66
2021/03/12 09:23:48;;;;;;;3.33;1.10;;;11.30;72.90;;;10.98;71.07;97897.31;5056699;28;20643;-66
2021/03/12 09:26:21;;;;;;;2.80;1.13;;;11.20;72.30;;;10.90;70.57;97897.06;5058811;28;20627;-71
2021/03/12 09:28:59;;;;;;;4.97;1.23;;;11.20;72.70;;;10.72;72.36;97900.13;5053331;28;20636;-68
2021/03/12 09:31:30;;;;;;;4.13;1.43;;;11.00;73.60;;;10.84;71.76;97898.31;5064741;28;20636;-69
2021/03/12 09:34:09;;;;;;;3.60;1.30;;;11.10;74.70;;;11.25;71.32;97895.31;5066589;28;20639;-69
2021/03/12 09:37:00;;;;;;;4.47;1.57;;;11.40;74.50;;;11.33;72.27;97899.81;5051914;28;20640;-68
2021/03/12 09:40:37;;;;;;;3.23;1.00;;;11.50;74.40;;;11.13;71.79;97902.25;5052424;28;20636;-65
2021/03/12 09:43:35;;;;;;;4.13;1.33;;;11.40;72.90;;;10.94;71.42;97901.91;5058309;28;20639;-68
2021/03/12 09:46:10;;;;;;;3.63;1.70;;;11.30;73.00;;;10.81;71.14;97895.13;5077366;28;20712;-69
2021/03/12 09:48:48;;;;;;;3.93;1.47;;;11.10;71.90;;;10.73;71.94;97901.81;5055167;28;20629;-69
2021/03/12 09:51:35;;;;;;;3.10;1.07;;;11.00;72.80;;;10.59;71.85;97894.97;5072309;28;21270;-69
2021/03/12 09:54:04;;;;;;;6.70;1.50;;;10.90;73.40;;;10.57;71.45;97894.25;5060917;28;20637;-69
2021/03/12 09:56:39;;;;;;;9.83;1.50;;;10.80;73.00;;;10.45;70.28;97876.06;5059268;28;20651;-69
2021/03/12 09:59:11;;;;;;;3.50;1.00;;;10.70;71.50;;;10.71;70.19;97877.63;5061721;28;20635;-69
2021/03/12 10:02:03;;;;;;;2.60;1.00;;;10.80;73.00;;;10.86;68.71;97883.38;5056428;28;20759;-69
2021/03/12 10:04:57;;;;;;;5.40;1.30;;;11.00;71.10;;;10.95;69.33;97882.72;5071812;28;20640;-69
2021/03/12 10:08:06;;;;;;;4.90;2.07;;;11.00;70.80;;;11.33;69.98;97885.94;5054692;28;20820;-69
2021/03/12 10:10:55;;;;;;;2.70;1.13;;;11.30;73.20;;;11.65;66.79;97871.31;5056526;28;20620;-69
2021/03/12 10:13:43;;;;;;;1.87;0.90;;;11.60;70.20;;;11.66;67.91;97870.38;5057516;28;20639;-69
2021/03/12 10:16:24;;;;;;;2.60;1.00;;;11.70;69.40;;;11.63;67.10;97865.38;5056839;28;20635;-69
2021/03/12 10:19:00;;;;;;;2.33;0.90;;;11.70;68.90;;;11.61;66.71;97864.69;5062605;28;20659;-69
2021/03/12 10:21:28;;;;;;;2.23;1.10;;;11.70;67.40;;;11.62;68.46;97859.34;5058875;28;20694;-69
2021/03/12 10:23:55;;;;;;;1.93;0.70;;;11.80;68.20;;;11.68;67.33;97856.25;5060967;28;20631;-69
2021/03/12 10:26:23;;;;;;;2.23;1.10;;;11.90;67.90;;;11.65;66.12;97859.13;5058962;28;20697;-69
2021/03/12 10:28:52;;;;;;;2.20;1.10;;;11.90;66.80;;;11.64;66.35;97861.84;5054251;28;21295;-68
2021/03/12 10:31:20;;;;;;;3.20;1.50;;;11.80;66.70;;;11.68;65.42;97863.25;5062032;28;20232;-69
2021/03/12 10:33:50;;;;;;;7.20;3.07;;;11.80;66.90;;;11.73;65.51;97859.34;5061560;28;20638;-69
2021/03/12 10:36:20;;;;;;;2.77;1.20;;;11.90;65.80;;;11.85;64.79;97861.03;5059287;28;21312;-69
2021/03/12 10:38:50;;;;;;;1.87;1.00;;;12.00;65.40;;;12.04;65.97;97854.25;5053909;28;20751;-69
2021/03/12 10:41:22;;;;;;;4.23;1.20;;;12.10;65.60;;;12.37;65.03;97855.06;5052221;28;20635;-69
2021/03/12 10:43:57;;;;;;;2.23;0.90;;;12.40;66.90;;;12.54;64.94;97845.84;5065097;28;20645;-69
2021/03/12 10:46:25;;;;;;;2.70;0.70;;;12.50;66.70;;;12.70;64.22;97845.34;5066918;28;20642;-69
2021/03/12 10:48:53;;;;;;;4.70;1.10;;;12.70;65.30;;;12.80;63.35;97838.38;5068548;28;20839;-69
2021/03/12 10:51:22;;;;;;;3.30;1.30;;;12.90;64.10;;;12.77;63.00;97836.03;5068093;28;20213;-69
2021/03/12 10:53:53;;;;;;;2.43;0.70;;;12.90;63.20;;;12.64;62.55;97833.69;5068882;28;20647;-69
2021/03/12 10:56:22;;;;;;;3.37;1.10;;;12.80;62.30;;;12.64;65.58;97821.44;5072209;28;20639;-69
2021/03/12 10:58:52;;;;;;;2.60;1.00;;;12.70;64.30;;;12.43;62.63;97830.19;5063942;28;20684;-69
2021/03/12 11:01:23;;;;;;;3.93;1.20;;;12.60;62.10;;;12.27;63.44;97827.97;5061139;28;20627;-69
2021/03/12 11:03:53;;;;;;;2.20;1.00;;;12.50;60.80;;;11.88;62.80;97830.25;5063134;28;23024;-69
2021/03/12 11:06:23;;;;;;;3.00;1.00;;;12.10;60.70;;;11.78;62.93;97813.59;5071618;28;20644;-69
2021/03/12 11:08:51;;;;;;;1.70;0.80;;;12.10;61.20;;;11.63;61.60;97816.59;5060969;28;20679;-69